sensor_id;sensor_type;location;lat;lon;timestamp;temperature;humidity
20728;DHT22;10525;50.154;8.198;2023-01-04T00:00:29;5.10;99.90
20728;DHT22;10525;50.154;8.198;2023-01-04T00:02:56;5.10;99.90
20728;DHT22;10525;50.154;8.198;2023-01-04T00:05:22;5.10;99.90
20728;DHT22;10525;50.154;8.198;2023-01-04T00:07:49;5.10;99.90
20728;DHT22;10525;50.154;8.198;2023-01-04T00:10:17;5.20;99.90
20728;DHT22;10525;50.154;8.198;2023-01-04T00:12:44;5.20;99.90
20728;DHT22;10525;50.154;8.198;2023-01-04T00:15:10;5.20;99.90
20728;DHT22;10525;50.154;8.198;2023-01-04T00:17:37;5.20;99.90
20728;DHT22;10525;50.154;8.198;2023-01-04T00:20:04;5.20;99.90
20728;DHT22;10525;50.154;8.198;2023-01-04T00:22:32;5.20;99.90
20728;DHT22;10525;50.154;8.198;2023-01-04T00:24:59;5.20;99.90
20728;DHT22;10525;50.154;8.198;2023-01-04T00:27:27;5.30;99.90
20728;DHT22;10525;50.154;8.198;2023-01-04T00:29:53;5.30;99.90
20728;DHT22;10525;50.154;8.198;2023-01-04T00:32:20;5.20;99.90
20728;DHT22;10525;50.154;8.198;2023-01-04T00:34:46;5.30;99.90
20728;DHT22;10525;50.154;8.198;2023-01-04T00:37:13;5.20;99.90
20728;DHT22;10525;50.154;8.198;2023-01-04T00:39:40;5.20;99.90
20728;DHT22;10525;50.154;8.198;2023-01-04T00:42:06;5.20;99.90
20728;DHT22;10525;50.154;8.198;2023-01-04T00:44:34;5.20;99.90
20728;DHT22;10525;50.154;8.198;2023-01-04T00:47:03;5.10;99.90
20728;DHT22;10525;50.154;8.198;2023-01-04T00:49:30;5.10;99.90
20728;DHT22;10525;50.154;8.198;2023-01-04T00:51:58;5.10;99.90
20728;DHT22;10525;50.154;8.198;2023-01-04T00:54:25;5.10;99.90
20728;DHT22;10525;50.154;8.198;2023-01-04T00:56:52;5.10;99.90
20728;DHT22;10525;50.154;8.198;2023-01-04T00:59:19;5.20;99.90
20728;DHT22;10525;50.154;8.198;2023-01-04T01:01:47;5.20;99.90
20728;DHT22;10525;50.154;8.198;2023-01-04T01:04:17;5.30;99.90
20728;DHT22;10525;50.154;8.198;2023-01-04T01:06:45;5.20;99.90
20728;DHT22;10525;50.154;8.198;2023-01-04T01:09:12;5.30;99.90
20728;DHT22;10525;50.154;8.198;2023-01-04T01:11:39;5.30;99.90
20728;DHT22;10525;50.154;8.198;2023-01-04T01:14:06;5.40;99.90
20728;DHT22;10525;50.154;8.198;2023-01-04T01:16:33;5.40;99.90
20728;DHT22;10525;50.154;8.198;2023-01-04T01:19:01;5.40;99.90
20728;DHT22;10525;50.154;8.198;2023-01-04T01:21:28;5.40;99.90
20728;DHT22;10525;50.154;8.198;2023-01-04T01:23:56;5.30;99.90
20728;DHT22;10525;50.154;8.198;2023-01-04T01:26:24;5.30;99.90
20728;DHT22;10525;50.154;8.198;2023-01-04T01:28:51;5.30;99.90
20728;DHT22;10525;50.154;8.198;2023-01-04T01:31:19;5.20;99.90
20728;DHT22;10525;50.154;8.198;2023-01-04T01:33:47;5.10;99.90
20728;DHT22;10525;50.154;8.198;2023-01-04T01:36:16;5.10;99.90
20728;DHT22;10525;50.154;8.198;2023-01-04T01:38:43;5.00;99.90
20728;DHT22;10525;50.154;8.198;2023-01-04T01:41:17;5.10;99.90
20728;DHT22;10525;50.154;8.198;2023-01-04T01:43:48;5.10;99.90
20728;DHT22;10525;50.154;8.198;2023-01-04T01:46:16;5.10;99.90
20728;DHT22;10525;50.154;8.198;2023-01-04T01:48:45;5.10;99.90
20728;DHT22;10525;50.154;8.198;2023-01-04T01:51:15;5.00;99.90
20728;DHT22;10525;50.154;8.198;2023-01-04T01:53:45;5.00;99.90
20728;DHT22;10525;50.154;8.198;2023-01-04T01:56:15;5.00;99.90
20728;DHT22;10525;50.154;8.198;2023-01-04T01:58:46;5.00;99.90
20728;DHT22;10525;50.154;8.198;2023-01-04T02:01:14;5.00;99.90
20728;DHT22;10525;50.154;8.198;2023-01-04T02:03:42;5.10;99.90
20728;DHT22;10525;50.154;8.198;2023-01-04T02:06:12;5.10;99.90
20728;DHT22;10525;50.154;8.198;2023-01-04T02:08:41;5.10;99.90
20728;DHT22;10525;50.154;8.198;2023-01-04T02:11:08;5.10;99.90
20728;DHT22;10525;50.154;8.198;2023-01-04T02:13:36;5.10;99.90
20728;DHT22;10525;50.154;8.198;2023-01-04T02:16:29;5.10;99.90
20728;DHT22;10525;50.154;8.198;2023-01-04T02:19:06;5.10;99.90
20728;DHT22;10525;50.154;8.198;2023-01-04T02:21:50;5.00;99.90
20728;DHT22;10525;50.154;8.198;2023-01-04T02:24:38;5.00;99.90
20728;DHT22;10525;50.154;8.198;2023-01-04T02:27:23;5.00;99.90
20728;DHT22;10525;50.154;8.198;2023-01-04T02:33:05;5.00;99.90
20728;DHT22;10525;50.154;8.198;2023-01-04T02:35:42;5.00;99.90
20728;DHT22;10525;50.154;8.198;2023-01-04T02:38:17;5.00;99.90
20728;DHT22;10525;50.154;8.198;2023-01-04T02:40:51;5.10;99.90
20728;DHT22;10525;50.154;8.198;2023-01-04T02:43:29;5.00;99.90
20728;DHT22;10525;50.154;8.198;2023-01-04T02:46:18;5.00;99.90
20728;DHT22;10525;50.154;8.198;2023-01-04T02:48:48;5.00;99.90
20728;DHT22;10525;50.154;8.198;2023-01-04T02:51:34;5.00;99.90
20728;DHT22;10525;50.154;8.198;2023-01-04T02:54:03;5.10;99.90
20728;DHT22;10525;50.154;8.198;2023-01-04T02:56:50;5.00;99.90
20728;DHT22;10525;50.154;8.198;2023-01-04T02:59:28;5.00;99.90
20728;DHT22;10525;50.154;8.198;2023-01-04T03:02:05;5.00;99.90
20728;DHT22;10525;50.154;8.198;2023-01-04T03:04:59;5.00;99.90
20728;DHT22;10525;50.154;8.198;2023-01-04T03:07:50;5.00;99.90
20728;DHT22;10525;50.154;8.198;2023-01-04T03:10:24;5.00;99.90
20728;DHT22;10525;50.154;8.198;2023-01-04T03:13:00;5.00;99.90
20728;DHT22;10525;50.154;8.198;2023-01-04T03:15:30;5.00;99.90
20728;DHT22;10525;50.154;8.198;2023-01-04T03:18:04;5.00;99.90
20728;DHT22;10525;50.154;8.198;2023-01-04T03:20:34;5.00;99.90
20728;DHT22;10525;50.154;8.198;2023-01-04T03:23:03;5.00;99.90
20728;DHT22;10525;50.154;8.198;2023-01-04T03:25:52;5.00;99.90
20728;DHT22;10525;50.154;8.198;2023-01-04T03:28:38;5.00;99.90
20728;DHT22;10525;50.154;8.198;2023-01-04T03:31:27;5.00;99.90
20728;DHT22;10525;50.154;8.198;2023-01-04T03:34:14;5.00;99.90
20728;DHT22;10525;50.154;8.198;2023-01-04T03:37:06;5.00;99.90
20728;DHT22;10525;50.154;8.198;2023-01-04T03:39:41;5.00;99.90
20728;DHT22;10525;50.154;8.198;2023-01-04T03:42:30;5.00;99.90
20728;DHT22;10525;50.154;8.198;2023-01-04T03:45:22;5.00;99.90
20728;DHT22;10525;50.154;8.198;2023-01-04T03:48:11;5.00;99.90
20728;DHT22;10525;50.154;8.198;2023-01-04T03:51:10;4.90;99.90
20728;DHT22;10525;50.154;8.198;2023-01-04T03:53:49;5.00;99.90
20728;DHT22;10525;50.154;8.198;2023-01-04T03:56:18;4.90;99.90
20728;DHT22;10525;50.154;8.198;2023-01-04T03:58:47;4.90;99.90
20728;DHT22;10525;50.154;8.198;2023-01-04T04:01:14;4.90;99.90
20728;DHT22;10525;50.154;8.198;2023-01-04T04:03:42;4.90;99.90
20728;DHT22;10525;50.154;8.198;2023-01-04T04:06:26;4.90;99.90
20728;DHT22;10525;50.154;8.198;2023-01-04T04:09:12;4.90;99.90
20728;DHT22;10525;50.154;8.198;2023-01-04T04:11:39;4.80;99.90
20728;DHT22;10525;50.154;8.198;2023-01-04T04:14:05;4.90;99.90
20728;DHT22;10525;50.154;8.198;2023-01-04T04:16:32;4.80;99.90
20728;DHT22;10525;50.154;8.198;2023-01-04T04:18:58;4.80;99.90
20728;DHT22;10525;50.154;8.198;2023-01-04T04:21:25;4.80;99.90
20728;DHT22;10525;50.154;8.198;2023-01-04T04:23:53;4.80;99.90
20728;DHT22;10525;50.154;8.198;2023-01-04T04:26:22;4.80;99.90
20728;DHT22;10525;50.154;8.198;2023-01-04T04:28:49;4.80;99.90
20728;DHT22;10525;50.154;8.198;2023-01-04T04:31:16;4.90;99.90
20728;DHT22;10525;50.154;8.198;2023-01-04T04:33:42;4.80;99.90
20728;DHT22;10525;50.154;8.198;2023-01-04T04:36:09;4.80;99.90
20728;DHT22;10525;50.154;8.198;2023-01-04T04:38:37;4.80;99.90
20728;DHT22;10525;50.154;8.198;2023-01-04T04:41:08;4.80;99.90
20728;DHT22;10525;50.154;8.198;2023-01-04T04:43:53;4.80;99.90
20728;DHT22;10525;50.154;8.198;2023-01-04T04:46:20;4.90;99.90
20728;DHT22;10525;50.154;8.198;2023-01-04T04:48:47;4.90;99.90
20728;DHT22;10525;50.154;8.198;2023-01-04T04:51:13;4.80;99.90
20728;DHT22;10525;50.154;8.198;2023-01-04T04:53:40;4.80;99.90
20728;DHT22;10525;50.154;8.198;2023-01-04T04:56:07;4.80;99.90
20728;DHT22;10525;50.154;8.198;2023-01-04T04:58:34;4.80;99.90
20728;DHT22;10525;50.154;8.198;2023-01-04T05:01:02;4.90;99.90
20728;DHT22;10525;50.154;8.198;2023-01-04T05:03:29;4.90;99.90
20728;DHT22;10525;50.154;8.198;2023-01-04T05:05:56;4.90;99.90
20728;DHT22;10525;50.154;8.198;2023-01-04T05:08:23;4.90;99.90
20728;DHT22;10525;50.154;8.198;2023-01-04T05:10:49;5.00;99.90
20728;DHT22;10525;50.154;8.198;2023-01-04T05:13:16;5.00;99.90
20728;DHT22;10525;50.154;8.198;2023-01-04T05:15:44;5.00;99.90
20728;DHT22;10525;50.154;8.198;2023-01-04T05:18:14;5.00;99.90
20728;DHT22;10525;50.154;8.198;2023-01-04T05:20:40;5.00;99.90
20728;DHT22;10525;50.154;8.198;2023-01-04T05:23:09;5.00;99.90
20728;DHT22;10525;50.154;8.198;2023-01-04T05:25:36;5.00;99.90
20728;DHT22;10525;50.154;8.198;2023-01-04T05:28:04;5.00;99.90
20728;DHT22;10525;50.154;8.198;2023-01-04T05:30:30;5.10;99.90
20728;DHT22;10525;50.154;8.198;2023-01-04T05:33:16;5.10;99.90
20728;DHT22;10525;50.154;8.198;2023-01-04T05:35:43;5.00;99.90
20728;DHT22;10525;50.154;8.198;2023-01-04T05:38:10;5.10;99.90
20728;DHT22;10525;50.154;8.198;2023-01-04T05:40:37;5.10;99.90
20728;DHT22;10525;50.154;8.198;2023-01-04T05:43:03;5.10;99.90
20728;DHT22;10525;50.154;8.198;2023-01-04T05:45:30;5.20;99.90
20728;DHT22;10525;50.154;8.198;2023-01-04T05:47:57;5.30;99.90
20728;DHT22;10525;50.154;8.198;2023-01-04T05:50:25;5.20;99.90
20728;DHT22;10525;50.154;8.198;2023-01-04T05:52:52;5.30;99.90
20728;DHT22;10525;50.154;8.198;2023-01-04T05:55:19;5.40;99.90
20728;DHT22;10525;50.154;8.198;2023-01-04T05:57:46;5.40;99.90
20728;DHT22;10525;50.154;8.198;2023-01-04T06:00:13;5.50;99.90
20728;DHT22;10525;50.154;8.198;2023-01-04T06:02:41;5.50;99.90
20728;DHT22;10525;50.154;8.198;2023-01-04T06:05:08;5.60;99.90
20728;DHT22;10525;50.154;8.198;2023-01-04T06:07:37;5.60;99.90
20728;DHT22;10525;50.154;8.198;2023-01-04T06:10:05;5.70;99.90
20728;DHT22;10525;50.154;8.198;2023-01-04T06:12:33;5.70;99.90
20728;DHT22;10525;50.154;8.198;2023-01-04T06:15:00;5.70;99.90
20728;DHT22;10525;50.154;8.198;2023-01-04T06:17:26;5.70;99.90
20728;DHT22;10525;50.154;8.198;2023-01-04T06:19:53;5.70;99.90
20728;DHT22;10525;50.154;8.198;2023-01-04T06:22:20;5.80;99.90
20728;DHT22;10525;50.154;8.198;2023-01-04T06:24:48;5.80;99.90
20728;DHT22;10525;50.154;8.198;2023-01-04T06:27:14;5.80;99.90
20728;DHT22;10525;50.154;8.198;2023-01-04T06:29:41;5.80;99.90
20728;DHT22;10525;50.154;8.198;2023-01-04T06:32:08;5.80;99.90
20728;DHT22;10525;50.154;8.198;2023-01-04T06:34:34;5.80;99.90
20728;DHT22;10525;50.154;8.198;2023-01-04T06:37:01;5.90;99.90
20728;DHT22;10525;50.154;8.198;2023-01-04T06:39:28;5.80;99.90
20728;DHT22;10525;50.154;8.198;2023-01-04T06:41:56;5.90;99.90
20728;DHT22;10525;50.154;8.198;2023-01-04T06:44:23;5.90;99.90
20728;DHT22;10525;50.154;8.198;2023-01-04T06:46:49;5.90;99.90
20728;DHT22;10525;50.154;8.198;2023-01-04T06:49:16;5.90;99.90
20728;DHT22;10525;50.154;8.198;2023-01-04T06:51:42;5.90;99.90
20728;DHT22;10525;50.154;8.198;2023-01-04T06:54:09;5.90;99.90
20728;DHT22;10525;50.154;8.198;2023-01-04T06:56:37;5.90;99.90
20728;DHT22;10525;50.154;8.198;2023-01-04T06:59:05;6.00;99.90
20728;DHT22;10525;50.154;8.198;2023-01-04T07:01:32;6.00;99.90
20728;DHT22;10525;50.154;8.198;2023-01-04T07:03:59;6.00;99.90
20728;DHT22;10525;50.154;8.198;2023-01-04T07:06:25;6.00;99.90
20728;DHT22;10525;50.154;8.198;2023-01-04T07:08:53;6.00;99.90
20728;DHT22;10525;50.154;8.198;2023-01-04T07:11:20;6.00;99.90
20728;DHT22;10525;50.154;8.198;2023-01-04T07:13:46;6.00;99.90
20728;DHT22;10525;50.154;8.198;2023-01-04T07:16:14;6.10;99.90
20728;DHT22;10525;50.154;8.198;2023-01-04T07:18:41;6.00;99.90
20728;DHT22;10525;50.154;8.198;2023-01-04T07:21:08;6.00;99.90
20728;DHT22;10525;50.154;8.198;2023-01-04T07:23:34;6.00;99.90
20728;DHT22;10525;50.154;8.198;2023-01-04T07:26:02;6.10;99.90
20728;DHT22;10525;50.154;8.198;2023-01-04T07:28:28;6.10;99.90
20728;DHT22;10525;50.154;8.198;2023-01-04T07:31:14;6.00;99.90
20728;DHT22;10525;50.154;8.198;2023-01-04T07:33:42;6.00;99.90
20728;DHT22;10525;50.154;8.198;2023-01-04T07:36:08;6.00;99.90
20728;DHT22;10525;50.154;8.198;2023-01-04T07:38:35;6.10;99.90
20728;DHT22;10525;50.154;8.198;2023-01-04T07:41:02;6.10;99.90
20728;DHT22;10525;50.154;8.198;2023-01-04T07:43:29;6.10;99.90
20728;DHT22;10525;50.154;8.198;2023-01-04T07:45:55;6.10;99.90
20728;DHT22;10525;50.154;8.198;2023-01-04T07:48:23;6.10;99.90
20728;DHT22;10525;50.154;8.198;2023-01-04T07:50:50;6.10;99.90
20728;DHT22;10525;50.154;8.198;2023-01-04T07:53:17;6.20;99.90
20728;DHT22;10525;50.154;8.198;2023-01-04T07:55:44;6.20;99.90
20728;DHT22;10525;50.154;8.198;2023-01-04T07:58:10;6.20;99.90
20728;DHT22;10525;50.154;8.198;2023-01-04T08:00:37;6.20;99.90
20728;DHT22;10525;50.154;8.198;2023-01-04T08:03:04;6.20;99.90
20728;DHT22;10525;50.154;8.198;2023-01-04T08:05:33;6.30;99.90
20728;DHT22;10525;50.154;8.198;2023-01-04T08:07:59;6.30;99.90
20728;DHT22;10525;50.154;8.198;2023-01-04T08:10:26;6.30;99.90
20728;DHT22;10525;50.154;8.198;2023-01-04T08:12:53;6.30;99.90
20728;DHT22;10525;50.154;8.198;2023-01-04T08:15:20;6.30;99.90
20728;DHT22;10525;50.154;8.198;2023-01-04T08:17:46;6.30;99.90
20728;DHT22;10525;50.154;8.198;2023-01-04T08:20:13;6.30;99.90
20728;DHT22;10525;50.154;8.198;2023-01-04T08:22:41;6.40;99.90
20728;DHT22;10525;50.154;8.198;2023-01-04T08:25:08;6.30;99.90
20728;DHT22;10525;50.154;8.198;2023-01-04T08:27:35;6.30;99.90
20728;DHT22;10525;50.154;8.198;2023-01-04T08:30:03;6.40;99.90
20728;DHT22;10525;50.154;8.198;2023-01-04T08:32:30;6.40;99.90
20728;DHT22;10525;50.154;8.198;2023-01-04T08:34:56;6.40;99.90
20728;DHT22;10525;50.154;8.198;2023-01-04T08:37:23;6.40;99.90
20728;DHT22;10525;50.154;8.198;2023-01-04T08:39:51;6.40;99.90
20728;DHT22;10525;50.154;8.198;2023-01-04T08:42:18;6.40;99.90
20728;DHT22;10525;50.154;8.198;2023-01-04T08:44:44;6.50;99.90
20728;DHT22;10525;50.154;8.198;2023-01-04T08:47:11;6.50;99.90
20728;DHT22;10525;50.154;8.198;2023-01-04T08:49:38;6.60;99.90
20728;DHT22;10525;50.154;8.198;2023-01-04T08:52:04;6.50;99.90
20728;DHT22;10525;50.154;8.198;2023-01-04T08:54:33;6.50;99.90
20728;DHT22;10525;50.154;8.198;2023-01-04T08:57:01;6.50;99.90
20728;DHT22;10525;50.154;8.198;2023-01-04T08:59:28;6.50;99.90
20728;DHT22;10525;50.154;8.198;2023-01-04T09:01:54;6.60;99.90
20728;DHT22;10525;50.154;8.198;2023-01-04T09:04:21;6.60;99.90
20728;DHT22;10525;50.154;8.198;2023-01-04T09:06:48;6.60;99.90
20728;DHT22;10525;50.154;8.198;2023-01-04T09:09:14;6.60;99.90
20728;DHT22;10525;50.154;8.198;2023-01-04T09:11:41;6.60;99.90
20728;DHT22;10525;50.154;8.198;2023-01-04T09:14:09;6.60;99.90
20728;DHT22;10525;50.154;8.198;2023-01-04T09:16:38;6.60;99.90
20728;DHT22;10525;50.154;8.198;2023-01-04T09:19:06;6.70;99.90
20728;DHT22;10525;50.154;8.198;2023-01-04T09:21:32;6.70;99.90
20728;DHT22;10525;50.154;8.198;2023-01-04T09:23:59;6.80;99.90
20728;DHT22;10525;50.154;8.198;2023-01-04T09:26:26;6.80;99.90
20728;DHT22;10525;50.154;8.198;2023-01-04T09:28:54;6.80;99.90
20728;DHT22;10525;50.154;8.198;2023-01-04T09:31:24;6.80;99.90
20728;DHT22;10525;50.154;8.198;2023-01-04T09:33:51;6.80;99.90
20728;DHT22;10525;50.154;8.198;2023-01-04T09:36:19;6.80;99.90
20728;DHT22;10525;50.154;8.198;2023-01-04T09:38:46;6.80;99.90
20728;DHT22;10525;50.154;8.198;2023-01-04T09:41:21;6.80;99.90
20728;DHT22;10525;50.154;8.198;2023-01-04T09:43:51;6.80;99.90
20728;DHT22;10525;50.154;8.198;2023-01-04T09:46:25;6.80;99.90
20728;DHT22;10525;50.154;8.198;2023-01-04T09:48:57;6.80;99.90
20728;DHT22;10525;50.154;8.198;2023-01-04T09:51:30;6.80;99.90
20728;DHT22;10525;50.154;8.198;2023-01-04T09:54:02;6.90;99.90
20728;DHT22;10525;50.154;8.198;2023-01-04T09:56:32;6.90;99.90
20728;DHT22;10525;50.154;8.198;2023-01-04T09:59:01;6.90;99.90
20728;DHT22;10525;50.154;8.198;2023-01-04T10:01:38;7.00;99.90
20728;DHT22;10525;50.154;8.198;2023-01-04T10:04:14;7.10;99.90
20728;DHT22;10525;50.154;8.198;2023-01-04T10:06:43;7.10;99.90
20728;DHT22;10525;50.154;8.198;2023-01-04T10:09:12;7.10;99.90
20728;DHT22;10525;50.154;8.198;2023-01-04T10:11:48;7.10;99.90
20728;DHT22;10525;50.154;8.198;2023-01-04T10:14:47;7.10;99.90
20728;DHT22;10525;50.154;8.198;2023-01-04T10:17:31;7.10;99.90
20728;DHT22;10525;50.154;8.198;2023-01-04T10:20:28;7.20;99.90
20728;DHT22;10525;50.154;8.198;2023-01-04T10:23:01;7.20;99.90
20728;DHT22;10525;50.154;8.198;2023-01-04T10:25:38;7.20;99.90
20728;DHT22;10525;50.154;8.198;2023-01-04T10:28:30;7.20;99.90
20728;DHT22;10525;50.154;8.198;2023-01-04T10:31:04;7.20;99.90
20728;DHT22;10525;50.154;8.198;2023-01-04T10:33:41;7.30;99.90
20728;DHT22;10525;50.154;8.198;2023-01-04T10:36:18;7.30;99.90
20728;DHT22;10525;50.154;8.198;2023-01-04T10:38:45;7.30;99.90
20728;DHT22;10525;50.154;8.198;2023-01-04T10:41:16;7.30;99.90
20728;DHT22;10525;50.154;8.198;2023-01-04T10:43:54;7.30;99.90
20728;DHT22;10525;50.154;8.198;2023-01-04T10:46:28;7.40;99.90
20728;DHT22;10525;50.154;8.198;2023-01-04T10:48:59;7.40;99.90
20728;DHT22;10525;50.154;8.198;2023-01-04T10:51:36;7.40;99.90
20728;DHT22;10525;50.154;8.198;2023-01-04T10:54:10;7.50;99.90
20728;DHT22;10525;50.154;8.198;2023-01-04T10:56:43;7.50;99.90
20728;DHT22;10525;50.154;8.198;2023-01-04T10:59:17;7.60;99.90
20728;DHT22;10525;50.154;8.198;2023-01-04T11:01:49;7.50;99.90
20728;DHT22;10525;50.154;8.198;2023-01-04T11:04:23;7.50;99.90
20728;DHT22;10525;50.154;8.198;2023-01-04T11:06:54;7.60;99.90
20728;DHT22;10525;50.154;8.198;2023-01-04T11:09:25;7.50;99.90
20728;DHT22;10525;50.154;8.198;2023-01-04T11:11:55;7.50;99.90
20728;DHT22;10525;50.154;8.198;2023-01-04T11:14:23;7.60;99.90
20728;DHT22;10525;50.154;8.198;2023-01-04T11:16:54;7.50;99.90
20728;DHT22;10525;50.154;8.198;2023-01-04T11:19:24;7.50;99.90
20728;DHT22;10525;50.154;8.198;2023-01-04T11:21:55;7.60;99.90
20728;DHT22;10525;50.154;8.198;2023-01-04T11:24:24;7.60;99.90
20728;DHT22;10525;50.154;8.198;2023-01-04T11:26:54;7.70;99.90
20728;DHT22;10525;50.154;8.198;2023-01-04T11:29:28;7.70;99.90
20728;DHT22;10525;50.154;8.198;2023-01-04T11:31:59;7.70;99.90
20728;DHT22;10525;50.154;8.198;2023-01-04T11:34:46;7.70;99.90
20728;DHT22;10525;50.154;8.198;2023-01-04T11:37:25;7.70;99.90
20728;DHT22;10525;50.154;8.198;2023-01-04T11:40:20;7.70;99.90
20728;DHT22;10525;50.154;8.198;2023-01-04T11:42:48;7.80;99.90
20728;DHT22;10525;50.154;8.198;2023-01-04T11:45:17;7.80;99.90
20728;DHT22;10525;50.154;8.198;2023-01-04T11:47:49;7.70;99.90
20728;DHT22;10525;50.154;8.198;2023-01-04T11:50:37;7.70;99.90
20728;DHT22;10525;50.154;8.198;2023-01-04T11:53:25;7.80;99.90
20728;DHT22;10525;50.154;8.198;2023-01-04T11:56:08;7.80;99.90
20728;DHT22;10525;50.154;8.198;2023-01-04T11:58:35;7.90;99.90
20728;DHT22;10525;50.154;8.198;2023-01-04T12:01:02;7.90;99.90
20728;DHT22;10525;50.154;8.198;2023-01-04T12:03:30;7.90;99.90
20728;DHT22;10525;50.154;8.198;2023-01-04T12:06:00;8.00;99.90
20728;DHT22;10525;50.154;8.198;2023-01-04T12:08:29;8.10;99.90
20728;DHT22;10525;50.154;8.198;2023-01-04T12:10:57;8.00;99.90
20728;DHT22;10525;50.154;8.198;2023-01-04T12:13:24;8.10;99.90
20728;DHT22;10525;50.154;8.198;2023-01-04T12:15:57;8.00;99.90
20728;DHT22;10525;50.154;8.198;2023-01-04T12:18:28;8.00;99.90
20728;DHT22;10525;50.154;8.198;2023-01-04T12:20:56;8.00;99.90
20728;DHT22;10525;50.154;8.198;2023-01-04T12:23:24;8.00;99.90
20728;DHT22;10525;50.154;8.198;2023-01-04T12:25:51;8.00;99.90
20728;DHT22;10525;50.154;8.198;2023-01-04T12:28:32;8.00;99.90
20728;DHT22;10525;50.154;8.198;2023-01-04T12:31:25;8.00;99.90
20728;DHT22;10525;50.154;8.198;2023-01-04T12:33:53;8.10;99.90
20728;DHT22;10525;50.154;8.198;2023-01-04T12:36:55;8.00;99.90
20728;DHT22;10525;50.154;8.198;2023-01-04T12:39:27;8.10;99.90
20728;DHT22;10525;50.154;8.198;2023-01-04T12:42:18;8.10;99.90
20728;DHT22;10525;50.154;8.198;2023-01-04T12:47:53;8.20;99.90
20728;DHT22;10525;50.154;8.198;2023-01-04T12:53:52;8.20;99.90
20728;DHT22;10525;50.154;8.198;2023-01-04T12:56:19;8.30;99.90
20728;DHT22;10525;50.154;8.198;2023-01-04T12:59:05;8.40;99.90
20728;DHT22;10525;50.154;8.198;2023-01-04T13:01:32;8.40;99.90
20728;DHT22;10525;50.154;8.198;2023-01-04T13:04:02;8.40;99.90
20728;DHT22;10525;50.154;8.198;2023-01-04T13:06:33;8.50;99.90
20728;DHT22;10525;50.154;8.198;2023-01-04T13:09:08;8.50;99.90
20728;DHT22;10525;50.154;8.198;2023-01-04T13:12:03;8.60;99.90
20728;DHT22;10525;50.154;8.198;2023-01-04T13:14:38;8.60;99.90
20728;DHT22;10525;50.154;8.198;2023-01-04T13:17:14;8.70;99.90
20728;DHT22;10525;50.154;8.198;2023-01-04T13:19:42;8.70;99.90
20728;DHT22;10525;50.154;8.198;2023-01-04T13:22:15;8.80;99.90
20728;DHT22;10525;50.154;8.198;2023-01-04T13:24:44;8.80;99.90
20728;DHT22;10525;50.154;8.198;2023-01-04T13:27:15;8.80;99.90
20728;DHT22;10525;50.154;8.198;2023-01-04T13:29:42;8.80;99.90
20728;DHT22;10525;50.154;8.198;2023-01-04T13:32:11;8.80;99.90
20728;DHT22;10525;50.154;8.198;2023-01-04T13:34:40;8.90;99.90
20728;DHT22;10525;50.154;8.198;2023-01-04T13:37:18;8.90;99.90
20728;DHT22;10525;50.154;8.198;2023-01-04T13:39:49;8.90;99.90
20728;DHT22;10525;50.154;8.198;2023-01-04T13:42:22;8.90;99.90
20728;DHT22;10525;50.154;8.198;2023-01-04T13:45:39;9.00;99.90
20728;DHT22;10525;50.154;8.198;2023-01-04T13:48:10;8.90;99.90
20728;DHT22;10525;50.154;8.198;2023-01-04T13:50:39;9.00;99.90
20728;DHT22;10525;50.154;8.198;2023-01-04T13:53:17;9.00;99.90
20728;DHT22;10525;50.154;8.198;2023-01-04T13:55:48;9.00;99.90
20728;DHT22;10525;50.154;8.198;2023-01-04T13:58:17;9.10;99.90
20728;DHT22;10525;50.154;8.198;2023-01-04T14:00:45;9.10;99.90
20728;DHT22;10525;50.154;8.198;2023-01-04T14:03:27;9.10;99.90
20728;DHT22;10525;50.154;8.198;2023-01-04T14:06:00;9.10;99.90
20728;DHT22;10525;50.154;8.198;2023-01-04T14:08:36;9.10;99.90
20728;DHT22;10525;50.154;8.198;2023-01-04T14:11:16;9.10;99.90
20728;DHT22;10525;50.154;8.198;2023-01-04T14:14:19;9.10;99.90
20728;DHT22;10525;50.154;8.198;2023-01-04T14:16:46;9.10;99.90
20728;DHT22;10525;50.154;8.198;2023-01-04T14:19:27;9.20;99.90
20728;DHT22;10525;50.154;8.198;2023-01-04T14:21:59;9.20;99.90
20728;DHT22;10525;50.154;8.198;2023-01-04T14:24:32;9.30;99.90
20728;DHT22;10525;50.154;8.198;2023-01-04T14:27:29;9.30;99.90
20728;DHT22;10525;50.154;8.198;2023-01-04T14:29:56;9.30;99.90
20728;DHT22;10525;50.154;8.198;2023-01-04T14:32:23;9.40;99.90
20728;DHT22;10525;50.154;8.198;2023-01-04T14:34:50;9.40;99.90
20728;DHT22;10525;50.154;8.198;2023-01-04T14:37:17;9.40;99.90
20728;DHT22;10525;50.154;8.198;2023-01-04T14:39:44;9.50;99.90
20728;DHT22;10525;50.154;8.198;2023-01-04T14:42:23;9.50;99.90
20728;DHT22;10525;50.154;8.198;2023-01-04T14:44:52;9.50;99.90
20728;DHT22;10525;50.154;8.198;2023-01-04T14:47:19;9.50;99.90
20728;DHT22;10525;50.154;8.198;2023-01-04T14:49:46;9.50;99.90
20728;DHT22;10525;50.154;8.198;2023-01-04T14:52:19;9.50;99.90
20728;DHT22;10525;50.154;8.198;2023-01-04T14:54:47;9.50;99.90
20728;DHT22;10525;50.154;8.198;2023-01-04T14:57:15;9.50;99.90
20728;DHT22;10525;50.154;8.198;2023-01-04T14:59:42;9.50;99.90
20728;DHT22;10525;50.154;8.198;2023-01-04T15:02:11;9.50;99.90
20728;DHT22;10525;50.154;8.198;2023-01-04T15:04:38;9.40;99.90
20728;DHT22;10525;50.154;8.198;2023-01-04T15:07:05;9.50;99.90
20728;DHT22;10525;50.154;8.198;2023-01-04T15:09:32;9.40;99.90
20728;DHT22;10525;50.154;8.198;2023-01-04T15:12:00;9.40;99.90
20728;DHT22;10525;50.154;8.198;2023-01-04T15:14:26;9.30;99.90
20728;DHT22;10525;50.154;8.198;2023-01-04T15:16:54;9.40;99.90
20728;DHT22;10525;50.154;8.198;2023-01-04T15:19:22;9.40;99.90
20728;DHT22;10525;50.154;8.198;2023-01-04T15:21:49;9.30;99.90
20728;DHT22;10525;50.154;8.198;2023-01-04T15:24:18;9.30;99.90
20728;DHT22;10525;50.154;8.198;2023-01-04T15:26:45;9.30;99.90
20728;DHT22;10525;50.154;8.198;2023-01-04T15:29:11;9.30;99.90
20728;DHT22;10525;50.154;8.198;2023-01-04T15:31:38;9.30;99.90
20728;DHT22;10525;50.154;8.198;2023-01-04T15:34:06;9.30;99.90
20728;DHT22;10525;50.154;8.198;2023-01-04T15:36:34;9.20;99.90
20728;DHT22;10525;50.154;8.198;2023-01-04T15:39:03;9.20;99.90
20728;DHT22;10525;50.154;8.198;2023-01-04T15:41:29;9.20;99.90
20728;DHT22;10525;50.154;8.198;2023-01-04T15:44:14;9.20;99.90
20728;DHT22;10525;50.154;8.198;2023-01-04T15:46:40;9.10;99.90
20728;DHT22;10525;50.154;8.198;2023-01-04T15:49:07;9.10;99.90
20728;DHT22;10525;50.154;8.198;2023-01-04T15:51:35;9.10;99.90
20728;DHT22;10525;50.154;8.198;2023-01-04T15:54:02;9.10;99.90
20728;DHT22;10525;50.154;8.198;2023-01-04T15:56:28;9.10;99.90
20728;DHT22;10525;50.154;8.198;2023-01-04T15:58:55;9.10;99.90
20728;DHT22;10525;50.154;8.198;2023-01-04T16:01:22;9.10;99.90
20728;DHT22;10525;50.154;8.198;2023-01-04T16:03:49;9.10;99.90
20728;DHT22;10525;50.154;8.198;2023-01-04T16:06:16;9.10;99.90
20728;DHT22;10525;50.154;8.198;2023-01-04T16:08:45;9.10;99.90
20728;DHT22;10525;50.154;8.198;2023-01-04T16:11:15;9.10;99.90
20728;DHT22;10525;50.154;8.198;2023-01-04T16:13:43;9.00;99.90
20728;DHT22;10525;50.154;8.198;2023-01-04T16:16:10;9.10;99.90
20728;DHT22;10525;50.154;8.198;2023-01-04T16:18:37;9.10;99.90